sensor_id;sensor_type;location;lat;lon;timestamp;temperature;humidity
13808;DHT22;40769;51.512;5.494;2024-03-23T15:10:33;13.10;99.90
13808;DHT22;40769;51.512;5.494;2024-03-23T15:12:59;13.60;99.90
13808;DHT22;40769;51.512;5.494;2024-03-23T15:15:25;13.70;99.90
13808;DHT22;40769;51.512;5.494;2024-03-23T15:17:50;13.60;99.90
13808;DHT22;40769;51.512;5.494;2024-03-23T15:20:16;13.50;99.90
13808;DHT22;40769;51.512;5.494;2024-03-23T15:22:42;13.50;99.90
13808;DHT22;40769;51.512;5.494;2024-03-23T15:25:08;13.20;99.90
13808;DHT22;40769;51.512;5.494;2024-03-23T15:27:33;13.00;99.90
13808;DHT22;40769;51.512;5.494;2024-03-23T15:29:59;12.90;99.90
13808;DHT22;40769;51.512;5.494;2024-03-23T15:32:25;12.70;99.90
13808;DHT22;40769;51.512;5.494;2024-03-23T15:34:50;12.50;99.90
13808;DHT22;40769;51.512;5.494;2024-03-23T15:37:17;12.10;99.90
13808;DHT22;40769;51.512;5.494;2024-03-23T15:39:43;11.60;99.90
13808;DHT22;40769;51.512;5.494;2024-03-23T15:42:08;11.10;99.90
13808;DHT22;40769;51.512;5.494;2024-03-23T15:44:35;10.70;99.90
13808;DHT22;40769;51.512;5.494;2024-03-23T15:47:01;10.40;99.90
13808;DHT22;40769;51.512;5.494;2024-03-23T15:49:27;10.10;99.90
13808;DHT22;40769;51.512;5.494;2024-03-23T15:51:52;9.80;99.90
13808;DHT22;40769;51.512;5.494;2024-03-23T15:54:18;9.60;99.90
13808;DHT22;40769;51.512;5.494;2024-03-23T15:56:44;10.40;99.90
13808;DHT22;40769;51.512;5.494;2024-03-23T15:59:10;9.30;99.90
13808;DHT22;40769;51.512;5.494;2024-03-23T16:01:36;9.10;99.90
13808;DHT22;40769;51.512;5.494;2024-03-23T16:04:03;9.40;99.90
13808;DHT22;40769;51.512;5.494;2024-03-23T16:06:28;8.80;99.90
13808;DHT22;40769;51.512;5.494;2024-03-23T16:08:54;8.70;99.90
13808;DHT22;40769;51.512;5.494;2024-03-23T16:11:20;8.60;99.90
13808;DHT22;40769;51.512;5.494;2024-03-23T16:13:45;8.60;99.90
13808;DHT22;40769;51.512;5.494;2024-03-23T16:16:12;8.70;99.90
13808;DHT22;40769;51.512;5.494;2024-03-23T16:18:38;9.50;99.90
13808;DHT22;40769;51.512;5.494;2024-03-23T16:21:06;9.10;99.90
13808;DHT22;40769;51.512;5.494;2024-03-23T16:23:36;8.70;99.90
13808;DHT22;40769;51.512;5.494;2024-03-23T16:26:07;9.30;99.90
13808;DHT22;40769;51.512;5.494;2024-03-23T16:28:36;9.20;99.90
13808;DHT22;40769;51.512;5.494;2024-03-23T16:31:06;9.70;99.90
13808;DHT22;40769;51.512;5.494;2024-03-23T16:33:33;9.30;99.90
13808;DHT22;40769;51.512;5.494;2024-03-23T16:36:10;9.40;99.90
13808;DHT22;40769;51.512;5.494;2024-03-23T16:38:38;9.50;99.90
13808;DHT22;40769;51.512;5.494;2024-03-23T16:41:07;9.40;99.90
13808;DHT22;40769;51.512;5.494;2024-03-23T16:43:34;9.40;99.90
13808;DHT22;40769;51.512;5.494;2024-03-23T16:48:28;9.40;99.90
13808;DHT22;40769;51.512;5.494;2024-03-23T16:50:56;9.40;99.90
13808;DHT22;40769;51.512;5.494;2024-03-23T16:53:22;9.40;99.90
13808;DHT22;40769;51.512;5.494;2024-03-23T16:56:05;9.30;99.90
13808;DHT22;40769;51.512;5.494;2024-03-23T16:58:36;9.40;99.90
13808;DHT22;40769;51.512;5.494;2024-03-23T17:03:37;9.60;99.90
13808;DHT22;40769;51.512;5.494;2024-03-23T17:06:06;9.70;99.90
13808;DHT22;40769;51.512;5.494;2024-03-23T17:08:35;9.60;99.90
13808;DHT22;40769;51.512;5.494;2024-03-23T17:11:02;9.60;99.90
13808;DHT22;40769;51.512;5.494;2024-03-23T17:13:31;9.60;99.90
13808;DHT22;40769;51.512;5.494;2024-03-23T17:15:57;9.70;99.90
13808;DHT22;40769;51.512;5.494;2024-03-23T17:18:22;9.70;99.90
13808;DHT22;40769;51.512;5.494;2024-03-23T17:20:48;9.80;99.90
13808;DHT22;40769;51.512;5.494;2024-03-23T17:23:22;10.20;99.90
13808;DHT22;40769;51.512;5.494;2024-03-23T17:25:48;9.90;99.90
13808;DHT22;40769;51.512;5.494;2024-03-23T17:28:14;9.80;99.90
13808;DHT22;40769;51.512;5.494;2024-03-23T17:30:41;10.30;99.90
13808;DHT22;40769;51.512;5.494;2024-03-23T17:33:07;10.10;99.90
13808;DHT22;40769;51.512;5.494;2024-03-23T17:35:33;10.10;99.90
13808;DHT22;40769;51.512;5.494;2024-03-23T17:37:59;10.30;99.90
13808;DHT22;40769;51.512;5.494;2024-03-23T17:40:24;10.10;99.90
13808;DHT22;40769;51.512;5.494;2024-03-23T17:42:50;10.10;99.90
13808;DHT22;40769;51.512;5.494;2024-03-23T17:45:16;10.30;99.90
13808;DHT22;40769;51.512;5.494;2024-03-23T17:47:43;10.40;99.90
13808;DHT22;40769;51.512;5.494;2024-03-23T17:50:09;10.60;99.90
13808;DHT22;40769;51.512;5.494;2024-03-23T17:52:38;10.80;99.90
13808;DHT22;40769;51.512;5.494;2024-03-23T17:55:06;10.60;99.90
13808;DHT22;40769;51.512;5.494;2024-03-23T17:57:32;10.70;99.90
13808;DHT22;40769;51.512;5.494;2024-03-23T17:59:58;10.70;99.90
13808;DHT22;40769;51.512;5.494;2024-03-23T18:02:23;10.80;99.90
13808;DHT22;40769;51.512;5.494;2024-03-23T18:04:52;10.90;99.90
13808;DHT22;40769;51.512;5.494;2024-03-23T18:07:18;10.90;99.90
13808;DHT22;40769;51.512;5.494;2024-03-23T18:09:45;11.10;99.90
13808;DHT22;40769;51.512;5.494;2024-03-23T18:12:11;10.70;99.90
13808;DHT22;40769;51.512;5.494;2024-03-23T18:14:38;10.70;99.90
13808;DHT22;40769;51.512;5.494;2024-03-23T18:17:04;10.70;99.90
13808;DHT22;40769;51.512;5.494;2024-03-23T18:19:29;10.60;99.90
13808;DHT22;40769;51.512;5.494;2024-03-23T18:21:55;10.50;99.90
13808;DHT22;40769;51.512;5.494;2024-03-23T18:24:21;10.40;99.90
13808;DHT22;40769;51.512;5.494;2024-03-23T18:26:49;10.40;99.90
13808;DHT22;40769;51.512;5.494;2024-03-23T18:29:14;10.80;99.90
13808;DHT22;40769;51.512;5.494;2024-03-23T18:31:41;10.50;99.90
13808;DHT22;40769;51.512;5.494;2024-03-23T18:34:07;10.50;99.90
13808;DHT22;40769;51.512;5.494;2024-03-23T18:36:33;9.50;99.90
13808;DHT22;40769;51.512;5.494;2024-03-23T18:38:59;10.60;99.90
13808;DHT22;40769;51.512;5.494;2024-03-23T18:41:27;10.60;99.90
13808;DHT22;40769;51.512;5.494;2024-03-23T18:43:54;10.70;99.90
13808;DHT22;40769;51.512;5.494;2024-03-23T18:46:20;10.70;99.90
13808;DHT22;40769;51.512;5.494;2024-03-23T18:48:46;11.00;99.90
13808;DHT22;40769;51.512;5.494;2024-03-23T18:51:11;10.70;99.90
13808;DHT22;40769;51.512;5.494;2024-03-23T18:53:37;10.60;99.90
13808;DHT22;40769;51.512;5.494;2024-03-23T18:56:03;10.40;99.90
13808;DHT22;40769;51.512;5.494;2024-03-23T18:58:29;10.30;99.90
13808;DHT22;40769;51.512;5.494;2024-03-23T19:01:00;10.20;99.90
13808;DHT22;40769;51.512;5.494;2024-03-23T19:03:29;10.20;99.90
13808;DHT22;40769;51.512;5.494;2024-03-23T19:05:59;10.20;99.90
13808;DHT22;40769;51.512;5.494;2024-03-23T19:08:25;10.00;99.90
13808;DHT22;40769;51.512;5.494;2024-03-23T19:10:58;9.90;99.90
13808;DHT22;40769;51.512;5.494;2024-03-23T19:13:26;9.90;99.90
13808;DHT22;40769;51.512;5.494;2024-03-23T19:15:52;10.10;99.90
13808;DHT22;40769;51.512;5.494;2024-03-23T19:18:18;10.30;99.90
13808;DHT22;40769;51.512;5.494;2024-03-23T19:20:50;10.10;99.90
13808;DHT22;40769;51.512;5.494;2024-03-23T19:23:19;10.10;99.90
13808;DHT22;40769;51.512;5.494;2024-03-23T19:25:51;10.00;99.90
13808;DHT22;40769;51.512;5.494;2024-03-23T19:28:17;10.10;99.90
13808;DHT22;40769;51.512;5.494;2024-03-23T19:30:43;11.10;99.90
13808;DHT22;40769;51.512;5.494;2024-03-23T19:33:09;10.20;99.90
13808;DHT22;40769;51.512;5.494;2024-03-23T19:35:34;10.40;99.90
13808;DHT22;40769;51.512;5.494;2024-03-23T19:38:00;10.20;99.90
13808;DHT22;40769;51.512;5.494;2024-03-23T19:40:25;10.20;99.90
13808;DHT22;40769;51.512;5.494;2024-03-23T19:42:51;10.10;99.90
13808;DHT22;40769;51.512;5.494;2024-03-23T19:45:16;10.20;99.90
13808;DHT22;40769;51.512;5.494;2024-03-23T19:47:45;10.00;99.90
13808;DHT22;40769;51.512;5.494;2024-03-23T19:50:10;10.10;99.90
13808;DHT22;40769;51.512;5.494;2024-03-23T19:52:36;9.90;99.90
13808;DHT22;40769;51.512;5.494;2024-03-23T19:55:03;9.70;99.90
13808;DHT22;40769;51.512;5.494;2024-03-23T19:57:28;9.60;99.90
13808;DHT22;40769;51.512;5.494;2024-03-23T20:00:00;9.80;99.90
13808;DHT22;40769;51.512;5.494;2024-03-23T20:02:26;10.00;99.90
13808;DHT22;40769;51.512;5.494;2024-03-23T20:04:52;9.40;99.90
13808;DHT22;40769;51.512;5.494;2024-03-23T20:07:20;9.30;99.90
13808;DHT22;40769;51.512;5.494;2024-03-23T20:09:46;9.20;99.90
13808;DHT22;40769;51.512;5.494;2024-03-23T20:12:11;9.20;99.90
13808;DHT22;40769;51.512;5.494;2024-03-23T20:14:37;9.20;99.90
13808;DHT22;40769;51.512;5.494;2024-03-23T20:17:04;9.40;99.90
13808;DHT22;40769;51.512;5.494;2024-03-23T20:19:30;9.10;99.90
13808;DHT22;40769;51.512;5.494;2024-03-23T20:21:58;9.10;99.90
13808;DHT22;40769;51.512;5.494;2024-03-23T20:24:25;9.10;99.90
13808;DHT22;40769;51.512;5.494;2024-03-23T20:26:51;9.10;99.90
13808;DHT22;40769;51.512;5.494;2024-03-23T20:29:17;9.10;99.90
13808;DHT22;40769;51.512;5.494;2024-03-23T20:31:46;9.20;99.90
13808;DHT22;40769;51.512;5.494;2024-03-23T20:34:14;9.40;99.90
13808;DHT22;40769;51.512;5.494;2024-03-23T20:36:40;9.40;99.90
13808;DHT22;40769;51.512;5.494;2024-03-23T20:39:05;9.40;99.90
13808;DHT22;40769;51.512;5.494;2024-03-23T20:41:31;9.40;99.90
13808;DHT22;40769;51.512;5.494;2024-03-23T20:43:57;9.40;99.90
13808;DHT22;40769;51.512;5.494;2024-03-23T20:46:23;9.50;99.90
13808;DHT22;40769;51.512;5.494;2024-03-23T20:48:49;9.50;99.90
13808;DHT22;40769;51.512;5.494;2024-03-23T20:51:16;9.50;99.90
13808;DHT22;40769;51.512;5.494;2024-03-23T20:53:42;9.40;99.90
13808;DHT22;40769;51.512;5.494;2024-03-23T20:56:08;9.50;99.90
13808;DHT22;40769;51.512;5.494;2024-03-23T20:58:35;9.40;99.90
13808;DHT22;40769;51.512;5.494;2024-03-23T21:01:03;9.40;99.90
13808;DHT22;40769;51.512;5.494;2024-03-23T21:03:29;9.50;99.90
13808;DHT22;40769;51.512;5.494;2024-03-23T21:05:55;9.50;99.90
13808;DHT22;40769;51.512;5.494;2024-03-23T21:08:21;9.40;99.90
13808;DHT22;40769;51.512;5.494;2024-03-23T21:10:51;9.30;99.90
13808;DHT22;40769;51.512;5.494;2024-03-23T21:13:17;9.30;99.90
13808;DHT22;40769;51.512;5.494;2024-03-23T21:15:50;9.30;99.90
13808;DHT22;40769;51.512;5.494;2024-03-23T21:18:19;9.30;99.90
13808;DHT22;40769;51.512;5.494;2024-03-23T21:20:45;9.70;99.90
13808;DHT22;40769;51.512;5.494;2024-03-23T21:23:11;9.60;99.90
13808;DHT22;40769;51.512;5.494;2024-03-23T21:25:39;9.20;99.90
13808;DHT22;40769;51.512;5.494;2024-03-23T21:28:05;9.20;99.90
13808;DHT22;40769;51.512;5.494;2024-03-23T21:30:31;9.20;99.90
13808;DHT22;40769;51.512;5.494;2024-03-23T21:32:59;9.20;99.90
13808;DHT22;40769;51.512;5.494;2024-03-23T21:35:24;9.30;99.90
13808;DHT22;40769;51.512;5.494;2024-03-23T21:37:52;9.20;99.90
13808;DHT22;40769;51.512;5.494;2024-03-23T21:40:18;9.10;99.90
13808;DHT22;40769;51.512;5.494;2024-03-23T21:42:43;9.20;99.90
13808;DHT22;40769;51.512;5.494;2024-03-23T21:45:10;9.20;99.90
13808;DHT22;40769;51.512;5.494;2024-03-23T21:47:35;9.20;99.90
13808;DHT22;40769;51.512;5.494;2024-03-23T21:50:01;9.20;99.90
13808;DHT22;40769;51.512;5.494;2024-03-23T21:52:26;9.10;99.90
13808;DHT22;40769;51.512;5.494;2024-03-23T21:54:52;9.00;99.90
13808;DHT22;40769;51.512;5.494;2024-03-23T21:57:18;8.90;99.90
13808;DHT22;40769;51.512;5.494;2024-03-23T21:59:44;8.90;99.90
13808;DHT22;40769;51.512;5.494;2024-03-23T22:02:09;8.90;99.90
13808;DHT22;40769;51.512;5.494;2024-03-23T22:04:35;8.90;99.90
13808;DHT22;40769;51.512;5.494;2024-03-23T22:07:01;8.90;99.90
13808;DHT22;40769;51.512;5.494;2024-03-23T22:09:26;8.80;99.90
13808;DHT22;40769;51.512;5.494;2024-03-23T22:11:55;8.80;99.90
13808;DHT22;40769;51.512;5.494;2024-03-23T22:14:22;8.80;99.90
13808;DHT22;40769;51.512;5.494;2024-03-23T22:16:48;8.80;99.90
13808;DHT22;40769;51.512;5.494;2024-03-23T22:19:13;8.90;99.90
13808;DHT22;40769;51.512;5.494;2024-03-23T22:21:39;8.90;99.90
13808;DHT22;40769;51.512;5.494;2024-03-23T22:24:05;9.50;99.90
13808;DHT22;40769;51.512;5.494;2024-03-23T22:26:30;8.80;99.90
13808;DHT22;40769;51.512;5.494;2024-03-23T22:28:56;8.80;99.90
13808;DHT22;40769;51.512;5.494;2024-03-23T22:31:21;8.90;99.90
13808;DHT22;40769;51.512;5.494;2024-03-23T22:33:47;9.70;99.90
13808;DHT22;40769;51.512;5.494;2024-03-23T22:36:13;9.70;99.90
13808;DHT22;40769;51.512;5.494;2024-03-23T22:38:38;9.00;99.90
13808;DHT22;40769;51.512;5.494;2024-03-23T22:41:04;9.10;99.90
13808;DHT22;40769;51.512;5.494;2024-03-23T22:43:32;9.50;99.90
13808;DHT22;40769;51.512;5.494;2024-03-23T22:45:59;9.10;99.90
13808;DHT22;40769;51.512;5.494;2024-03-23T22:48:27;9.10;99.90
13808;DHT22;40769;51.512;5.494;2024-03-23T22:50:55;9.20;99.90
13808;DHT22;40769;51.512;5.494;2024-03-23T22:53:22;9.10;99.90
13808;DHT22;40769;51.512;5.494;2024-03-23T22:55:48;9.10;99.90
13808;DHT22;40769;51.512;5.494;2024-03-23T22:58:15;9.00;99.90
13808;DHT22;40769;51.512;5.494;2024-03-23T23:00:41;9.50;99.90
13808;DHT22;40769;51.512;5.494;2024-03-23T23:03:12;9.10;99.90
13808;DHT22;40769;51.512;5.494;2024-03-23T23:05:38;9.20;99.90
13808;DHT22;40769;51.512;5.494;2024-03-23T23:08:14;9.10;99.90
13808;DHT22;40769;51.512;5.494;2024-03-23T23:10:47;8.90;99.90
13808;DHT22;40769;51.512;5.494;2024-03-23T23:13:12;8.90;99.90
13808;DHT22;40769;51.512;5.494;2024-03-23T23:15:38;8.90;99.90
13808;DHT22;40769;51.512;5.494;2024-03-23T23:18:04;8.90;99.90
13808;DHT22;40769;51.512;5.494;2024-03-23T23:20:31;8.90;99.90
13808;DHT22;40769;51.512;5.494;2024-03-23T23:22:59;8.90;99.90
13808;DHT22;40769;51.512;5.494;2024-03-23T23:25:25;8.90;99.90
13808;DHT22;40769;51.512;5.494;2024-03-23T23:27:50;8.90;99.90
13808;DHT22;40769;51.512;5.494;2024-03-23T23:30:18;8.90;99.90
13808;DHT22;40769;51.512;5.494;2024-03-23T23:32:44;8.90;99.90
13808;DHT22;40769;51.512;5.494;2024-03-23T23:35:11;8.80;99.90
13808;DHT22;40769;51.512;5.494;2024-03-23T23:37:37;8.70;99.90
13808;DHT22;40769;51.512;5.494;2024-03-23T23:40:03;8.70;99.90
13808;DHT22;40769;51.512;5.494;2024-03-23T23:42:30;8.70;99.90
13808;DHT22;40769;51.512;5.494;2024-03-23T23:44:58;8.70;99.90
13808;DHT22;40769;51.512;5.494;2024-03-23T23:47:24;8.70;99.90
13808;DHT22;40769;51.512;5.494;2024-03-23T23:49:49;8.90;99.90
13808;DHT22;40769;51.512;5.494;2024-03-23T23:52:15;8.70;99.90
13808;DHT22;40769;51.512;5.494;2024-03-23T23:54:40;8.70;99.90
13808;DHT22;40769;51.512;5.494;2024-03-23T23:57:09;8.70;99.90
13808;DHT22;40769;51.512;5.494;2024-03-23T23:59:35;8.80;99.90
